createdAt,value
2022-07-28T00:00:14.607Z,0.00
2022-07-28T00:01:14.603Z,0.00
2022-07-28T00:02:14.636Z,0.00
2022-07-28T00:03:14.605Z,0.00
2022-07-28T00:04:14.986Z,0.00
2022-07-28T00:05:14.523Z,0.00
2022-07-28T00:06:14.521Z,0.00
2022-07-28T00:07:14.515Z,0.00
2022-07-28T00:08:14.491Z,0.00
2022-07-28T00:09:14.489Z,0.00
2022-07-28T00:10:14.488Z,0.00
2022-07-28T00:11:14.461Z,0.00
2022-07-28T00:12:14.435Z,0.00
2022-07-28T00:13:14.434Z,0.00
2022-07-28T00:14:14.705Z,0.00
2022-07-28T00:15:14.394Z,0.00
2022-07-28T00:16:14.405Z,0.00
2022-07-28T00:17:14.397Z,0.00
2022-07-28T00:18:14.354Z,0.00
2022-07-28T00:19:14.359Z,0.00
2022-07-28T00:20:14.340Z,0.00
2022-07-28T00:21:14.323Z,0.00
2022-07-28T00:22:14.298Z,0.00
2022-07-28T00:23:14.291Z,0.00
2022-07-28T00:24:14.666Z,0.00
2022-07-28T00:25:14.279Z,0.00
2022-07-28T00:26:14.245Z,0.00
2022-07-28T00:27:14.261Z,0.00
2022-07-28T00:28:14.229Z,0.00
2022-07-28T00:29:14.226Z,0.00
2022-07-28T00:30:14.200Z,0.00
2022-07-28T00:31:14.259Z,0.00
2022-07-28T00:32:14.166Z,0.00
2022-07-28T00:33:14.166Z,0.00
2022-07-28T00:34:14.640Z,0.00
2022-07-28T00:35:14.967Z,0.00
2022-07-28T00:36:14.131Z,0.00
2022-07-28T00:37:14.840Z,0.00
2022-07-28T00:38:14.118Z,0.00
2022-07-28T00:39:14.089Z,0.00
2022-07-28T00:40:14.072Z,0.00
2022-07-28T00:41:14.067Z,0.00
2022-07-28T00:42:14.060Z,0.00
2022-07-28T00:43:14.019Z,0.00
2022-07-28T00:44:14.387Z,0.00
2022-07-28T00:45:14.012Z,0.00
2022-07-28T00:46:14.081Z,0.00
2022-07-28T00:47:13.984Z,0.00
2022-07-28T00:48:13.966Z,0.00
2022-07-28T00:49:14.011Z,0.00
2022-07-28T00:50:13.954Z,0.00
2022-07-28T00:51:13.937Z,0.00
2022-07-28T00:52:13.919Z,0.00
2022-07-28T00:53:13.892Z,0.00
2022-07-28T00:54:14.386Z,0.00
2022-07-28T00:55:13.887Z,0.00
2022-07-28T00:56:13.854Z,0.00
2022-07-28T00:57:13.851Z,0.00
2022-07-28T00:58:14.834Z,0.00
2022-07-28T00:59:13.837Z,0.00
2022-07-28T01:00:13.819Z,0.00
2022-07-28T01:01:13.820Z,0.00
2022-07-28T01:02:13.827Z,0.00
2022-07-28T01:03:13.815Z,0.00
2022-07-28T01:04:14.094Z,0.00
2022-07-28T01:05:13.789Z,0.00
2022-07-28T01:06:13.724Z,0.00
2022-07-28T01:07:13.719Z,0.00
2022-07-28T01:08:13.698Z,0.00
2022-07-28T01:09:13.695Z,0.00
2022-07-28T01:10:13.718Z,0.00
2022-07-28T01:11:13.672Z,0.00
2022-07-28T01:12:13.655Z,0.00
2022-07-28T01:13:13.640Z,0.00
2022-07-28T01:14:13.935Z,0.00
2022-07-28T01:15:13.618Z,0.00
2022-07-28T01:16:13.668Z,0.00
2022-07-28T01:17:13.579Z,0.00
2022-07-28T01:18:13.579Z,0.00
2022-07-28T01:19:13.560Z,0.00
2022-07-28T01:20:13.559Z,0.00
2022-07-28T01:21:13.519Z,0.00
2022-07-28T01:22:13.506Z,0.00
2022-07-28T01:23:13.515Z,0.00
2022-07-28T01:24:13.932Z,0.00
2022-07-28T01:25:13.482Z,0.00
2022-07-28T01:26:13.460Z,0.00
2022-07-28T01:27:13.450Z,0.00
2022-07-28T01:28:13.440Z,0.00
2022-07-28T01:29:13.431Z,0.00
2022-07-28T01:30:13.422Z,0.00
2022-07-28T01:31:13.471Z,0.00
2022-07-28T01:32:13.393Z,0.00
2022-07-28T01:33:13.361Z,0.00
2022-07-28T01:34:13.659Z,0.00
2022-07-28T01:35:13.378Z,0.00
2022-07-28T01:36:13.331Z,0.00
2022-07-28T01:37:13.324Z,0.00
2022-07-28T01:38:13.312Z,0.00
2022-07-28T01:39:13.286Z,0.00
2022-07-28T01:40:13.293Z,0.00
2022-07-28T01:41:13.281Z,0.00
2022-07-28T01:42:13.263Z,0.00
2022-07-28T01:43:13.485Z,0.00
2022-07-28T01:44:13.522Z,0.00
2022-07-28T01:45:13.205Z,0.00
2022-07-28T01:46:13.291Z,0.00
2022-07-28T01:47:13.198Z,0.00
2022-07-28T01:48:13.170Z,0.00
2022-07-28T01:49:13.190Z,0.00
2022-07-28T01:50:13.173Z,0.00
2022-07-28T01:51:13.145Z,0.00
2022-07-28T01:52:13.126Z,0.00
2022-07-28T01:53:13.097Z,0.00
2022-07-28T01:54:13.389Z,0.00
2022-07-28T01:55:13.089Z,0.00
2022-07-28T01:56:13.095Z,0.00
2022-07-28T01:57:13.057Z,0.00
2022-07-28T01:58:13.035Z,0.00
2022-07-28T01:59:13.026Z,0.00
2022-07-28T02:00:13.017Z,0.00
2022-07-28T02:01:13.043Z,0.00
2022-07-28T02:02:12.997Z,0.00
2022-07-28T02:03:12.976Z,0.00
2022-07-28T02:04:13.275Z,0.00
2022-07-28T02:05:12.981Z,0.00
2022-07-28T02:06:12.952Z,0.00
2022-07-28T02:07:12.918Z,0.00
2022-07-28T02:08:12.907Z,0.00
2022-07-28T02:09:12.899Z,0.00
2022-07-28T02:10:12.893Z,0.00
2022-07-28T02:11:12.894Z,0.00
2022-07-28T02:12:12.849Z,0.00
2022-07-28T02:13:12.849Z,0.00
2022-07-28T02:14:13.120Z,0.00
2022-07-28T02:15:12.808Z,0.00
2022-07-28T02:16:12.833Z,0.00
2022-07-28T02:17:12.790Z,0.00
2022-07-28T02:18:12.781Z,0.00
2022-07-28T02:19:12.770Z,0.00
2022-07-28T02:20:12.751Z,0.00
2022-07-28T02:21:12.740Z,0.00
2022-07-28T02:22:12.734Z,0.00
2022-07-28T02:23:12.713Z,0.00
2022-07-28T02:24:12.998Z,0.00
2022-07-28T02:25:12.678Z,0.00
2022-07-28T02:26:12.683Z,0.00
2022-07-28T02:27:12.670Z,0.00
2022-07-28T02:28:12.650Z,0.00
2022-07-28T02:29:33.622Z,0.00
2022-07-28T02:30:13.632Z,0.00
2022-07-28T02:31:12.689Z,0.00
2022-07-28T02:32:24.114Z,0.00
2022-07-28T02:33:13.570Z,0.00
2022-07-28T02:34:12.752Z,0.00
2022-07-28T02:35:12.552Z,0.00
2022-07-28T02:36:12.552Z,0.00
2022-07-28T02:37:12.546Z,0.00
2022-07-28T02:38:12.524Z,0.00
2022-07-28T02:39:12.504Z,0.00
2022-07-28T02:40:12.483Z,0.00
2022-07-28T02:41:12.484Z,0.00
2022-07-28T02:42:12.459Z,0.00
2022-07-28T02:43:12.444Z,0.00
2022-07-28T02:44:12.695Z,0.00
2022-07-28T02:45:12.437Z,0.00
2022-07-28T02:46:12.451Z,0.00
2022-07-28T02:47:12.392Z,0.00
2022-07-28T02:48:12.377Z,0.00
2022-07-28T02:49:12.427Z,0.00
2022-07-28T02:50:12.354Z,0.00
2022-07-28T02:51:12.361Z,0.00
2022-07-28T02:52:12.352Z,0.00
2022-07-28T02:53:15.463Z,0.00
2022-07-28T02:54:12.499Z,0.00
2022-07-28T02:55:12.289Z,0.00
2022-07-28T02:56:12.291Z,0.00
2022-07-28T02:57:12.267Z,0.00
2022-07-28T02:58:12.291Z,0.00
2022-07-28T02:59:12.287Z,0.00
2022-07-28T03:00:12.300Z,0.00
2022-07-28T03:01:12.246Z,0.00
2022-07-28T03:02:12.211Z,0.00
2022-07-28T03:03:12.211Z,0.00
2022-07-28T03:04:12.502Z,0.00
2022-07-28T03:05:12.226Z,0.00
2022-07-28T03:06:12.191Z,0.00
2022-07-28T03:07:12.145Z,0.00
2022-07-28T03:08:12.159Z,0.00
2022-07-28T03:09:12.152Z,0.00
2022-07-28T03:10:12.160Z,0.00
2022-07-28T03:11:12.090Z,0.00
2022-07-28T03:12:12.081Z,0.00
2022-07-28T03:14:22.304Z,0.00
2022-07-28T03:15:22.389Z,0.00
2022-07-28T03:16:22.846Z,0.00
2022-07-28T03:17:22.327Z,0.00
2022-07-28T03:18:22.250Z,0.00
2022-07-28T03:19:24.348Z,0.00
2022-07-28T03:20:22.299Z,0.00
2022-07-28T03:21:22.353Z,0.00
2022-07-28T03:22:22.326Z,0.00
2022-07-28T03:23:22.192Z,0.00
2022-07-28T03:24:22.132Z,0.00
2022-07-28T03:25:22.194Z,0.00
2022-07-28T03:26:22.242Z,0.00
2022-07-28T03:27:22.212Z,0.00
2022-07-28T03:28:22.126Z,0.00
2022-07-28T03:29:22.133Z,0.00
2022-07-28T03:30:22.135Z,0.00
2022-07-28T03:31:23.162Z,0.00
2022-07-28T03:32:23.072Z,0.00
2022-07-28T03:33:22.055Z,0.00
2022-07-28T03:34:22.066Z,0.00
2022-07-28T03:35:22.074Z,0.00
2022-07-28T03:36:22.101Z,0.00
2022-07-28T03:37:22.110Z,0.00
2022-07-28T03:38:21.978Z,0.00
2022-07-28T03:39:21.958Z,0.00
2022-07-28T03:40:22.007Z,0.00
2022-07-28T03:41:22.035Z,0.00
2022-07-28T03:42:22.007Z,0.00
2022-07-28T03:43:22.947Z,0.00
2022-07-28T03:44:27.785Z,0.00
2022-07-28T03:45:22.961Z,0.00
2022-07-28T03:46:22.005Z,0.00
2022-07-28T03:47:21.946Z,0.00
2022-07-28T03:48:21.838Z,0.00
2022-07-28T03:49:21.865Z,0.00
2022-07-28T04:02:55.124Z,5.62
2022-07-28T04:03:55.119Z,5.62
2022-07-28T04:04:55.136Z,5.62
2022-07-28T04:05:55.070Z,5.62
2022-07-28T04:06:55.045Z,5.62
2022-07-28T04:07:56.076Z,5.62
2022-07-28T04:08:55.058Z,5.62
2022-07-28T04:09:55.074Z,5.62
2022-07-28T04:10:55.008Z,5.62
2022-07-28T04:11:54.980Z,5.62
2022-07-28T04:12:54.994Z,5.62
2022-07-28T04:13:56.024Z,5.62
2022-07-28T04:14:55.023Z,5.62
2022-07-28T04:15:54.955Z,5.62
2022-07-28T04:16:54.985Z,5.62
2022-07-28T04:17:54.924Z,5.62
2022-07-28T04:18:54.931Z,5.62
2022-07-28T04:19:54.842Z,5.62
2022-07-28T04:20:54.865Z,11.25
2022-07-28T04:21:54.842Z,11.25
2022-07-28T04:22:54.852Z,11.25
2022-07-28T04:23:59.811Z,16.88
2022-07-28T04:24:55.781Z,16.88
2022-07-28T04:25:54.797Z,16.88
2022-07-28T04:26:54.774Z,16.88
2022-07-28T04:27:54.775Z,16.88
2022-07-28T04:28:54.803Z,16.88
2022-07-28T04:29:54.703Z,16.88
2022-07-28T04:30:54.812Z,16.88
2022-07-28T04:31:54.754Z,16.88
2022-07-28T04:32:54.715Z,16.88
2022-07-28T04:33:54.743Z,16.88
2022-07-28T04:34:54.644Z,22.50
2022-07-28T04:35:54.699Z,22.50
2022-07-28T04:37:15.639Z,22.50
2022-07-28T04:37:54.625Z,22.50
2022-07-28T04:38:54.685Z,22.50
2022-07-28T04:39:54.585Z,22.50
2022-07-28T04:40:54.763Z,22.50
2022-07-28T04:41:54.603Z,28.12
2022-07-28T04:42:55.616Z,28.12
2022-07-28T04:43:54.586Z,28.12
2022-07-28T04:44:54.517Z,28.12
2022-07-28T04:45:54.799Z,28.12
2022-07-28T04:46:54.516Z,28.12
2022-07-28T04:47:55.545Z,28.12
2022-07-28T04:48:54.589Z,28.12
2022-07-28T04:49:54.465Z,28.12
2022-07-28T04:50:54.544Z,28.12
2022-07-28T04:51:54.468Z,28.12
2022-07-28T04:52:54.446Z,28.12
2022-07-28T04:55:04.624Z,33.75
2022-07-28T04:56:04.810Z,33.75
2022-07-28T04:57:10.291Z,33.75
2022-07-28T04:58:05.667Z,33.75
2022-07-28T04:59:04.628Z,33.75
2022-07-28T05:00:04.590Z,33.75
2022-07-28T05:01:04.649Z,39.38
2022-07-28T05:02:04.548Z,39.38
2022-07-28T05:03:04.564Z,45.00
2022-07-28T05:04:04.559Z,45.00
2022-07-28T05:05:04.559Z,39.38
2022-07-28T05:06:04.497Z,39.38
2022-07-28T05:07:11.835Z,39.38
2022-07-28T05:08:05.510Z,33.75
2022-07-28T05:09:04.479Z,33.75
2022-07-28T05:10:04.512Z,33.75
2022-07-28T05:11:04.538Z,33.75
2022-07-28T05:12:04.518Z,33.75
2022-07-28T05:13:04.408Z,39.38
2022-07-28T05:14:04.451Z,39.38
2022-07-28T05:15:04.459Z,39.38
2022-07-28T05:16:04.566Z,39.38
2022-07-28T05:17:04.547Z,33.75
2022-07-28T05:18:05.361Z,33.75
2022-07-28T05:19:04.704Z,33.75
2022-07-28T05:20:04.369Z,28.12
2022-07-28T05:21:04.401Z,28.12
2022-07-28T05:22:04.403Z,28.12
2022-07-28T05:23:04.281Z,28.12
2022-07-28T05:24:04.290Z,28.12
2022-07-28T05:25:04.302Z,33.75
2022-07-28T05:26:04.333Z,33.75
2022-07-28T05:27:04.301Z,33.75
2022-07-28T05:28:05.252Z,28.12
2022-07-28T05:29:04.221Z,33.75
2022-07-28T05:30:04.233Z,33.75
2022-07-28T05:31:04.296Z,33.75
2022-07-28T05:32:16.163Z,39.38
2022-07-28T05:33:05.175Z,39.38
2022-07-28T05:34:04.152Z,39.38
2022-07-28T05:35:04.164Z,39.38
2022-07-28T05:36:04.212Z,45.00
2022-07-28T05:37:04.182Z,45.00
2022-07-28T05:38:07.569Z,45.00
2022-07-28T05:40:15.270Z,50.62
2022-07-28T05:41:15.286Z,56.25
2022-07-28T05:42:15.279Z,61.88
2022-07-28T05:43:15.280Z,67.50
2022-07-28T05:44:15.642Z,67.50
2022-07-28T05:45:16.810Z,73.12
2022-07-28T05:46:15.286Z,73.12
2022-07-28T05:47:15.199Z,67.50
2022-07-28T05:48:15.211Z,67.50
2022-07-28T05:49:15.306Z,67.50
2022-07-28T05:50:15.222Z,61.88
2022-07-28T05:51:15.149Z,56.25
2022-07-28T05:52:15.132Z,61.88
2022-07-28T05:53:15.152Z,67.50
2022-07-28T05:54:15.388Z,67.50
2022-07-28T05:55:15.148Z,67.50
2022-07-28T05:56:15.172Z,67.50
2022-07-28T05:57:15.154Z,67.50
2022-07-28T05:58:16.112Z,67.50
2022-07-28T05:59:15.174Z,67.50
2022-07-28T06:00:15.363Z,67.50
2022-07-28T06:01:15.205Z,67.50
2022-07-28T06:02:17.153Z,67.50
2022-07-28T06:03:15.026Z,67.50
2022-07-28T06:04:30.834Z,61.88
2022-07-28T06:05:15.965Z,67.50
2022-07-28T06:06:16.949Z,61.88
2022-07-28T06:07:14.995Z,61.88
2022-07-28T06:08:15.761Z,56.25
2022-07-28T06:09:14.957Z,56.25
2022-07-28T06:10:15.031Z,50.62
2022-07-28T06:11:22.799Z,50.62
2022-07-28T06:12:15.957Z,45.00
2022-07-28T06:13:14.880Z,45.00
2022-07-28T06:14:15.433Z,39.38
2022-07-28T06:15:14.913Z,33.75
2022-07-28T06:16:15.057Z,39.38
2022-07-28T06:17:14.856Z,33.75
2022-07-28T06:18:14.830Z,39.38
2022-07-28T06:19:14.838Z,33.75
2022-07-28T06:20:14.840Z,33.75
2022-07-28T06:21:14.859Z,39.38
2022-07-28T06:22:14.789Z,39.38
2022-07-28T06:23:14.771Z,39.38
2022-07-28T06:24:15.352Z,45.00
2022-07-28T06:25:15.803Z,45.00
2022-07-28T06:26:14.792Z,39.38
2022-07-28T06:27:14.671Z,45.00
2022-07-28T06:28:14.796Z,45.00
2022-07-28T06:29:14.720Z,45.00
2022-07-28T06:30:15.731Z,50.62
2022-07-28T06:31:14.746Z,50.62
2022-07-28T06:32:14.612Z,56.25
2022-07-28T06:33:17.293Z,61.88
2022-07-28T06:34:15.059Z,61.88
2022-07-28T06:35:14.644Z,61.88
2022-07-28T06:36:14.646Z,67.50
2022-07-28T06:37:14.793Z,73.12
2022-07-28T06:38:14.577Z,73.12
2022-07-28T06:39:14.558Z,78.75
2022-07-28T06:40:14.560Z,73.12
2022-07-28T06:41:14.566Z,73.12
2022-07-28T06:42:14.601Z,67.50
2022-07-28T06:43:14.622Z,67.50
2022-07-28T06:44:14.949Z,61.88
2022-07-28T06:45:20.650Z,61.88
2022-07-28T06:46:15.415Z,61.88
2022-07-28T06:47:14.555Z,61.88
2022-07-28T06:48:14.396Z,56.25
2022-07-28T06:49:14.821Z,50.62
2022-07-28T06:50:26.386Z,45.00
2022-07-28T06:51:15.475Z,45.00
2022-07-28T06:52:14.440Z,39.38
2022-07-28T06:53:14.398Z,39.38
2022-07-28T06:54:14.633Z,39.38
2022-07-28T06:55:14.384Z,45.00
2022-07-28T06:56:15.718Z,45.00
2022-07-28T06:57:14.385Z,45.00
2022-07-28T06:58:14.309Z,45.00
2022-07-28T06:59:36.477Z,45.00
2022-07-28T07:00:14.287Z,50.62
2022-07-28T07:01:14.413Z,56.25
2022-07-28T07:02:14.337Z,61.88
2022-07-28T07:03:14.234Z,61.88
2022-07-28T07:04:14.526Z,67.50
2022-07-28T07:05:14.369Z,73.12
2022-07-28T07:06:14.350Z,73.12
2022-07-28T07:07:17.271Z,73.12
2022-07-28T07:08:14.171Z,84.38
2022-07-28T07:09:14.128Z,95.62
2022-07-28T07:10:15.247Z,95.62
2022-07-28T07:11:14.162Z,101.25
2022-07-28T07:12:14.179Z,101.25
2022-07-28T07:13:14.149Z,101.25
2022-07-28T07:14:14.356Z,112.50
2022-07-28T07:15:14.363Z,112.50
2022-07-28T07:16:15.153Z,112.50
2022-07-28T07:17:14.113Z,112.50
2022-07-28T07:18:14.101Z,112.50
2022-07-28T07:19:15.862Z,112.50
2022-07-28T07:20:14.030Z,112.50
2022-07-28T07:22:24.214Z,106.88
2022-07-28T07:23:24.203Z,106.88
2022-07-28T07:24:24.183Z,101.25
2022-07-28T07:25:24.191Z,101.25
2022-07-28T07:26:26.275Z,112.50
2022-07-28T07:27:24.217Z,106.88
2022-07-28T07:28:24.144Z,106.88
2022-07-28T07:29:24.229Z,112.50
2022-07-28T07:30:24.098Z,101.25
2022-07-28T07:31:24.194Z,101.25
2022-07-28T07:32:24.134Z,95.62
2022-07-28T07:33:24.175Z,95.62
2022-07-28T07:34:24.161Z,95.62
2022-07-28T07:35:24.015Z,106.88
2022-07-28T07:36:24.082Z,101.25
2022-07-28T07:37:24.066Z,95.62
2022-07-28T07:38:28.844Z,84.38
2022-07-28T07:39:24.996Z,84.38
2022-07-28T07:40:24.017Z,78.75
2022-07-28T07:41:23.947Z,78.75
2022-07-28T07:42:24.795Z,73.12
2022-07-28T07:43:23.944Z,73.12
2022-07-28T07:44:23.922Z,73.12
2022-07-28T07:45:23.896Z,73.12
2022-07-28T07:46:23.958Z,67.50
2022-07-28T07:47:23.869Z,61.88
2022-07-28T07:48:23.859Z,61.88
2022-07-28T07:49:23.931Z,61.88
2022-07-28T07:50:23.916Z,61.88
2022-07-28T07:51:23.820Z,56.25
2022-07-28T07:52:23.809Z,45.00
2022-07-28T07:53:23.779Z,45.00
2022-07-28T07:54:23.792Z,45.00
2022-07-28T07:55:23.773Z,45.00
2022-07-28T07:56:23.784Z,45.00
2022-07-28T07:57:23.740Z,45.00
2022-07-28T07:58:23.735Z,50.62
2022-07-28T07:59:23.714Z,50.62
2022-07-28T08:00:29.080Z,56.25
2022-07-28T08:01:24.727Z,56.25
2022-07-28T08:02:23.673Z,56.25
2022-07-28T08:03:23.656Z,56.25
2022-07-28T08:04:25.288Z,56.25
2022-07-28T08:05:34.593Z,56.25
2022-07-28T08:06:26.199Z,56.25
2022-07-28T08:07:23.599Z,56.25
2022-07-28T08:08:23.594Z,56.25
2022-07-28T08:09:23.609Z,56.25
2022-07-28T08:10:23.565Z,56.25
2022-07-28T08:11:23.555Z,56.25
2022-07-28T08:12:24.721Z,56.25
2022-07-28T08:13:23.545Z,56.25
2022-07-28T08:14:23.532Z,56.25
2022-07-28T08:15:23.507Z,56.25
2022-07-28T08:16:23.537Z,56.25
2022-07-28T08:17:25.980Z,56.25
2022-07-28T08:18:23.468Z,56.25
2022-07-28T08:19:23.526Z,56.25
2022-07-28T08:20:23.428Z,56.25
2022-07-28T08:21:23.415Z,61.88
2022-07-28T08:22:23.429Z,61.88
2022-07-28T08:23:26.278Z,61.88
2022-07-28T08:24:33.827Z,61.88
2022-07-28T08:25:24.371Z,61.88
2022-07-28T08:26:23.349Z,61.88
2022-07-28T08:27:23.349Z,61.88
2022-07-28T08:28:23.318Z,61.88
2022-07-28T08:29:23.333Z,61.88
2022-07-28T08:30:26.345Z,61.88
2022-07-28T08:31:24.361Z,61.88
2022-07-28T08:32:23.298Z,61.88
2022-07-28T08:33:23.265Z,61.88
2022-07-28T08:34:31.511Z,61.88
2022-07-28T08:35:34.539Z,61.88
2022-07-28T08:36:24.220Z,61.88
2022-07-28T08:37:23.213Z,67.50
2022-07-28T08:38:23.180Z,67.50
2022-07-28T08:39:24.221Z,67.50
2022-07-28T08:40:27.387Z,67.50
2022-07-28T08:41:23.176Z,67.50
2022-07-28T08:42:23.134Z,67.50
2022-07-28T08:43:23.126Z,67.50
2022-07-28T08:44:23.115Z,73.12
2022-07-28T08:45:23.112Z,73.12
2022-07-28T08:46:23.122Z,73.12
2022-07-28T08:47:23.074Z,73.12
2022-07-28T08:48:23.052Z,73.12
2022-07-28T08:49:23.124Z,78.75
2022-07-28T08:50:23.044Z,78.75
2022-07-28T08:51:23.004Z,78.75
2022-07-28T08:52:23.005Z,78.75
2022-07-28T08:53:22.991Z,78.75
2022-07-28T08:54:22.968Z,78.75
2022-07-28T08:55:22.986Z,78.75
2022-07-28T08:56:22.945Z,78.75
2022-07-28T08:57:22.946Z,84.38
2022-07-28T08:58:22.936Z,84.38
2022-07-28T08:59:22.918Z,84.38
2022-07-28T09:00:22.899Z,84.38
2022-07-28T09:01:22.913Z,78.75
2022-07-28T09:02:22.968Z,90.00
2022-07-28T09:03:44.016Z,90.00
2022-07-28T09:04:22.850Z,90.00
2022-07-28T09:05:22.897Z,90.00
2022-07-28T09:06:22.854Z,95.62
2022-07-28T09:07:22.851Z,95.62
2022-07-28T09:08:22.849Z,95.62
2022-07-28T09:09:22.859Z,95.62
2022-07-28T09:10:22.789Z,95.62
2022-07-28T09:11:23.789Z,95.62
2022-07-28T09:12:27.199Z,95.62
2022-07-28T09:13:23.806Z,95.62
2022-07-28T09:14:22.740Z,95.62
2022-07-28T09:15:22.731Z,95.62
2022-07-28T09:16:22.753Z,95.62
2022-07-28T09:17:22.712Z,95.62
2022-07-28T09:18:22.725Z,95.62
2022-07-28T09:19:22.761Z,95.62
2022-07-28T09:20:25.956Z,101.25
2022-07-28T09:21:22.642Z,101.25
2022-07-28T09:22:22.653Z,101.25
2022-07-28T09:23:42.594Z,101.25
2022-07-28T09:24:23.682Z,101.25
2022-07-28T09:25:22.700Z,101.25
2022-07-28T09:26:23.595Z,101.25
2022-07-28T09:27:22.575Z,101.25
2022-07-28T09:28:22.584Z,106.88
2022-07-28T09:29:22.661Z,106.88
2022-07-28T09:30:22.626Z,106.88
2022-07-28T09:31:22.652Z,106.88
2022-07-28T09:32:22.509Z,106.88
2022-07-28T09:33:42.757Z,112.50
2022-07-28T09:34:23.547Z,112.50
2022-07-28T09:35:22.634Z,112.50
2022-07-28T09:36:22.535Z,112.50
2022-07-28T09:37:27.084Z,112.50
2022-07-28T09:38:25.546Z,118.12
2022-07-28T09:39:22.508Z,118.12
2022-07-28T09:40:22.787Z,118.12
2022-07-28T09:41:22.468Z,118.12
2022-07-28T09:42:22.378Z,123.75
2022-07-28T09:43:22.412Z,123.75
2022-07-28T09:44:22.390Z,123.75
2022-07-28T09:45:24.003Z,123.75
2022-07-28T09:46:22.600Z,123.75
2022-07-28T09:47:22.610Z,123.75
2022-07-28T10:03:15.047Z,146.25
2022-07-28T10:04:15.305Z,146.25
2022-07-28T10:05:14.853Z,151.88
2022-07-28T10:06:14.894Z,151.88
2022-07-28T10:07:15.785Z,151.88
2022-07-28T10:08:15.795Z,151.88
2022-07-28T10:09:14.774Z,151.88
2022-07-28T10:10:14.787Z,157.50
2022-07-28T10:11:14.817Z,157.50
2022-07-28T10:12:14.713Z,157.50
2022-07-28T10:13:14.803Z,157.50
2022-07-28T10:14:15.031Z,157.50
2022-07-28T10:15:14.714Z,157.50
2022-07-28T10:16:14.826Z,151.88
2022-07-28T10:17:14.727Z,151.88
2022-07-28T10:18:14.638Z,151.88
2022-07-28T10:19:14.639Z,157.50
2022-07-28T10:20:14.666Z,157.50
2022-07-28T10:21:14.717Z,157.50
2022-07-28T10:22:14.657Z,151.88
2022-07-28T10:23:14.672Z,157.50
2022-07-28T10:24:14.989Z,157.50
2022-07-28T10:25:14.580Z,151.88
2022-07-28T10:26:14.639Z,151.88
2022-07-28T10:27:14.591Z,151.88
2022-07-28T10:28:14.516Z,151.88
2022-07-28T10:29:14.609Z,151.88
2022-07-28T10:30:14.527Z,151.88
2022-07-28T10:31:15.674Z,157.50
2022-07-28T10:32:14.530Z,151.88
2022-07-28T10:33:14.452Z,163.12
2022-07-28T10:34:16.467Z,163.12
2022-07-28T10:35:14.448Z,157.50
2022-07-28T10:36:14.482Z,151.88
2022-07-28T10:37:15.485Z,157.50
2022-07-28T10:38:14.390Z,157.50
2022-07-28T10:39:14.474Z,157.50
2022-07-28T10:40:14.375Z,146.25
2022-07-28T10:41:14.413Z,163.12
2022-07-28T10:42:14.391Z,163.12
2022-07-28T10:43:15.415Z,168.75
2022-07-28T10:44:14.786Z,168.75
2022-07-28T10:45:14.414Z,168.75
2022-07-28T10:46:16.420Z,168.75
2022-07-28T10:47:18.258Z,168.75
2022-07-28T10:48:15.364Z,168.75
2022-07-28T10:49:15.433Z,168.75
2022-07-28T10:50:14.561Z,168.75
2022-07-28T10:51:14.278Z,168.75
2022-07-28T10:52:30.889Z,174.38
2022-07-28T10:53:15.218Z,174.38
2022-07-28T10:54:17.654Z,174.38
2022-07-28T10:55:15.197Z,174.38
2022-07-28T10:56:15.247Z,180.00
2022-07-28T10:57:14.189Z,180.00
2022-07-28T10:58:14.201Z,180.00
2022-07-28T10:59:14.213Z,180.00
2022-07-28T11:00:20.397Z,180.00
2022-07-28T11:01:32.596Z,180.00
2022-07-28T11:02:15.175Z,180.00
2022-07-28T11:03:15.246Z,180.00
2022-07-28T11:04:14.541Z,185.62
2022-07-28T11:05:14.129Z,185.62
2022-07-28T11:06:14.061Z,185.62
2022-07-28T11:07:14.042Z,185.62
2022-07-28T11:08:14.041Z,191.25
2022-07-28T11:09:14.014Z,191.25
2022-07-28T11:10:14.047Z,191.25
2022-07-28T11:11:14.010Z,191.25
2022-07-28T11:12:13.991Z,196.88
2022-07-28T11:13:14.376Z,202.50
2022-07-28T11:14:14.356Z,202.50
2022-07-28T11:15:18.273Z,196.88
2022-07-28T11:16:15.010Z,191.25
2022-07-28T11:17:14.077Z,191.25
2022-07-28T11:18:14.946Z,191.25
2022-07-28T11:19:38.031Z,196.88
2022-07-28T11:20:16.946Z,196.88
2022-07-28T11:21:16.355Z,196.88
2022-07-28T11:22:13.955Z,202.50
2022-07-28T11:23:13.960Z,208.12
2022-07-28T11:24:18.006Z,208.12
2022-07-28T11:25:21.071Z,208.12
2022-07-28T11:26:14.937Z,213.75
2022-07-28T11:27:13.893Z,219.38
2022-07-28T11:28:13.889Z,135.00
2022-07-28T11:29:13.897Z,202.50
2022-07-28T11:30:13.770Z,230.62
2022-07-28T11:31:13.803Z,123.75
2022-07-28T11:32:13.769Z,129.38
2022-07-28T11:33:13.739Z,208.12
2022-07-28T11:34:14.060Z,241.88
2022-07-28T11:35:13.710Z,236.25
2022-07-28T11:36:13.699Z,253.12
2022-07-28T11:37:15.120Z,253.12
2022-07-28T11:38:13.673Z,253.12
2022-07-28T11:39:13.659Z,258.75
2022-07-28T11:40:13.668Z,258.75
2022-07-28T11:41:13.624Z,281.25
2022-07-28T11:42:13.642Z,281.25
2022-07-28T11:43:13.681Z,275.62
2022-07-28T11:44:14.047Z,270.00
2022-07-28T11:45:13.604Z,264.38
2022-07-28T11:46:13.647Z,258.75
2022-07-28T11:47:13.556Z,270.00
2022-07-28T11:48:13.554Z,275.62
2022-07-28T11:49:14.930Z,264.38
2022-07-28T11:50:13.518Z,258.75
2022-07-28T11:51:13.541Z,191.25
2022-07-28T11:52:13.484Z,281.25
2022-07-28T11:53:13.485Z,298.12
2022-07-28T11:54:13.676Z,275.62
2022-07-28T11:55:13.454Z,225.00
2022-07-28T11:56:13.438Z,225.00
2022-07-28T11:57:13.857Z,292.50
2022-07-28T11:58:13.429Z,270.00
2022-07-28T11:59:13.414Z,264.38
2022-07-28T12:00:13.379Z,253.12
2022-07-28T12:01:17.771Z,281.25
2022-07-28T12:02:14.403Z,326.25
2022-07-28T12:03:14.362Z,320.62
2022-07-28T12:05:23.685Z,292.50
2022-07-28T12:06:26.296Z,286.88
2022-07-28T12:07:24.713Z,298.12
2022-07-28T12:08:23.655Z,298.12
2022-07-28T12:09:28.196Z,326.25
2022-07-28T12:10:53.252Z,337.50
2022-07-28T12:11:24.706Z,343.12
2022-07-28T12:12:24.224Z,337.50
2022-07-28T12:13:23.621Z,326.25
2022-07-28T12:14:23.688Z,315.00
2022-07-28T12:15:23.611Z,343.12
2022-07-28T12:16:24.623Z,388.12
2022-07-28T12:17:23.619Z,416.25
2022-07-28T12:18:24.836Z,405.00
2022-07-28T12:19:23.537Z,371.25
2022-07-28T12:20:24.489Z,365.62
2022-07-28T12:21:24.583Z,354.38
2022-07-28T12:22:23.559Z,393.75
2022-07-28T12:23:23.451Z,376.88
2022-07-28T12:24:23.488Z,354.38
2022-07-28T12:25:23.471Z,371.25
2022-07-28T12:26:28.832Z,337.50
2022-07-28T12:27:29.375Z,320.62
2022-07-28T12:28:24.448Z,354.38
2022-07-28T12:29:23.402Z,416.25
2022-07-28T12:30:23.394Z,416.25
2022-07-28T12:31:23.494Z,416.25
2022-07-28T12:32:23.422Z,410.62
2022-07-28T12:33:29.014Z,416.25
2022-07-28T12:34:28.455Z,399.38
2022-07-28T12:35:24.368Z,388.12
2022-07-28T12:36:23.347Z,331.88
2022-07-28T12:37:23.358Z,315.00
2022-07-28T12:38:26.556Z,315.00
2022-07-28T12:39:23.246Z,315.00
2022-07-28T12:40:27.561Z,343.12
2022-07-28T12:41:23.302Z,371.25
2022-07-28T12:42:23.277Z,360.00
2022-07-28T12:43:23.319Z,337.50
2022-07-28T12:44:23.180Z,320.62
2022-07-28T12:45:24.218Z,315.00
2022-07-28T12:46:23.240Z,320.62
2022-07-28T12:47:23.216Z,320.62
2022-07-28T12:48:23.219Z,326.25
2022-07-28T12:49:23.208Z,343.12
2022-07-28T12:50:24.148Z,382.50
2022-07-28T12:51:23.136Z,382.50
2022-07-28T12:52:23.250Z,331.88
2022-07-28T12:53:23.153Z,371.25
2022-07-28T12:54:23.109Z,326.25
2022-07-28T12:55:23.060Z,348.75
2022-07-28T12:57:32.795Z,376.88
2022-07-28T12:58:32.807Z,444.38
2022-07-28T12:59:32.844Z,382.50
2022-07-28T13:00:32.719Z,365.62
2022-07-28T13:01:32.786Z,337.50
2022-07-28T13:02:32.790Z,315.00
2022-07-28T13:03:32.753Z,281.25
2022-07-28T13:04:32.789Z,247.50
2022-07-28T13:05:32.668Z,208.12
2022-07-28T13:06:32.661Z,202.50
2022-07-28T13:07:32.702Z,180.00
2022-07-28T13:08:32.619Z,174.38
2022-07-28T13:09:35.445Z,168.75
2022-07-28T13:10:32.592Z,174.38
2022-07-28T13:11:46.160Z,180.00
2022-07-28T13:12:33.631Z,185.62
2022-07-28T13:13:32.581Z,191.25
2022-07-28T13:14:32.572Z,202.50
2022-07-28T13:15:32.620Z,225.00
2022-07-28T13:16:32.617Z,247.50
2022-07-28T13:17:32.532Z,258.75
2022-07-28T13:18:32.542Z,303.75
2022-07-28T13:19:33.567Z,337.50
2022-07-28T13:20:32.496Z,360.00
2022-07-28T13:21:32.460Z,365.62
2022-07-28T13:22:32.472Z,438.75
2022-07-28T13:23:32.463Z,438.75
2022-07-28T13:24:32.486Z,466.88
2022-07-28T13:25:33.457Z,483.75
2022-07-28T13:26:32.400Z,444.38